createdAt,value
2019-04-01T00:01:32.812Z,4.32
2019-04-01T00:06:40.441Z,3.81
2019-04-01T00:11:48.145Z,3.56
2019-04-01T00:16:55.735Z,3.78
2019-04-01T00:22:03.401Z,3.92
2019-04-01T00:27:11.025Z,3.57
2019-04-01T00:32:18.659Z,3.98
2019-04-01T00:37:26.287Z,3.77
2019-04-01T00:42:33.935Z,3.82
2019-04-01T00:47:41.526Z,3.89
2019-04-01T00:52:49.231Z,3.59
2019-04-01T00:57:56.845Z,3.75
2019-04-01T01:03:04.505Z,3.56
2019-04-01T01:08:12.138Z,3.48
2019-04-01T01:13:19.821Z,3.56
2019-04-01T01:18:27.430Z,3.58
2019-04-01T01:23:35.091Z,3.26
2019-04-01T01:28:42.663Z,3.41
2019-04-01T01:33:50.313Z,3.47
2019-04-01T01:38:57.936Z,3.35
2019-04-01T01:44:05.637Z,3.53
2019-04-01T01:49:13.260Z,2.97
2019-04-01T01:54:20.919Z,3.02
2019-04-01T01:59:28.533Z,3.30
2019-04-01T02:04:36.205Z,3.06
2019-04-01T02:09:43.827Z,2.76
2019-04-01T02:14:51.472Z,3.02
2019-04-01T02:19:59.101Z,3.00
2019-04-01T02:25:06.722Z,2.77
2019-04-01T02:30:14.348Z,2.74
2019-04-01T19:25:29.938Z,8.12
2019-04-01T19:30:27.623Z,7.83
2019-04-01T19:35:35.365Z,8.44
2019-04-01T19:40:43.066Z,7.77
2019-04-01T19:45:50.882Z,7.46
2019-04-01T19:50:59.338Z,7.76
2019-04-01T19:56:05.725Z,7.60
2019-04-01T20:01:13.398Z,7.12
2019-04-01T20:06:20.990Z,7.42
2019-04-01T20:11:28.624Z,7.76
2019-04-01T20:16:36.342Z,8.03
2019-04-01T20:21:47.183Z,8.27
2019-04-01T20:26:51.217Z,8.28
2019-04-01T20:31:58.820Z,7.90
2019-04-01T20:37:06.493Z,8.01
2019-04-01T20:42:14.108Z,7.23
2019-04-01T20:47:21.743Z,6.98
2019-04-01T20:52:29.341Z,7.66
2019-04-01T20:57:36.976Z,7.89
2019-04-01T21:02:44.568Z,8.19
2019-04-01T21:07:52.391Z,8.03
2019-04-01T21:13:00.000Z,8.53
2019-04-01T21:18:07.670Z,8.65
2019-04-01T21:23:15.263Z,9.18
2019-04-01T21:28:24.830Z,9.27
2019-04-01T21:33:30.080Z,8.93
2019-04-01T21:38:37.785Z,9.49
2019-04-01T21:43:45.377Z,9.66
2019-04-01T21:48:53.047Z,10.37
2019-04-01T21:54:00.651Z,10.13
2019-04-01T21:59:08.312Z,10.27
2019-04-01T22:04:15.911Z,10.24
2019-04-01T22:09:23.592Z,10.59
2019-04-01T22:14:31.202Z,10.61
2019-04-01T22:19:38.884Z,11.27
2019-04-01T22:24:46.506Z,10.78
2019-04-01T22:29:54.175Z,11.45
2019-04-01T22:35:01.758Z,12.00
2019-04-01T22:40:09.586Z,11.29
2019-04-01T22:45:17.158Z,11.47
2019-04-01T22:50:24.835Z,11.29
2019-04-01T22:55:32.435Z,11.24
2019-04-01T23:00:40.099Z,12.05
2019-04-01T23:05:47.716Z,12.50
2019-04-01T23:10:56.303Z,11.31
2019-04-01T23:16:02.526Z,11.45
2019-04-01T23:21:10.195Z,10.98
2019-04-01T23:26:17.784Z,11.53
2019-04-01T23:31:25.416Z,12.24
2019-04-01T23:36:33.023Z,11.37
2019-04-01T23:41:40.671Z,11.15
2019-04-01T23:46:48.450Z,11.76
2019-04-01T23:51:56.009Z,11.14
2019-04-01T23:57:03.591Z,11.06
